sensor_id;sensor_type;location;lat;lon;timestamp;P1;durP1;ratioP1;P2;durP2;ratioP2
14732;SDS011;7457;50.960;6.830;2023-07-22T00:01:14;10.35;;;6.72;;
14732;SDS011;7457;50.960;6.830;2023-07-22T00:03:40;9.43;;;7.32;;
14732;SDS011;7457;50.960;6.830;2023-07-22T00:06:09;8.10;;;6.45;;
14732;SDS011;7457;50.960;6.830;2023-07-22T00:08:36;11.15;;;6.72;;
14732;SDS011;7457;50.960;6.830;2023-07-22T00:11:03;11.18;;;6.63;;
14732;SDS011;7457;50.960;6.830;2023-07-22T00:13:29;8.18;;;6.35;;
14732;SDS011;7457;50.960;6.830;2023-07-22T00:15:55;11.50;;;6.57;;
14732;SDS011;7457;50.960;6.830;2023-07-22T00:18:22;7.05;;;6.20;;
14732;SDS011;7457;50.960;6.830;2023-07-22T00:20:48;8.02;;;6.47;;
14732;SDS011;7457;50.960;6.830;2023-07-22T00:23:15;9.18;;;6.10;;
14732;SDS011;7457;50.960;6.830;2023-07-22T00:25:41;10.90;;;6.60;;
14732;SDS011;7457;50.960;6.830;2023-07-22T00:28:07;8.60;;;5.60;;
14732;SDS011;7457;50.960;6.830;2023-07-22T00:30:33;9.07;;;6.00;;
14732;SDS011;7457;50.960;6.830;2023-07-22T00:32:59;7.18;;;5.88;;
14732;SDS011;7457;50.960;6.830;2023-07-22T00:35:25;9.02;;;5.95;;
14732;SDS011;7457;50.960;6.830;2023-07-22T00:37:51;8.85;;;6.00;;
14732;SDS011;7457;50.960;6.830;2023-07-22T00:40:17;7.20;;;5.30;;
14732;SDS011;7457;50.960;6.830;2023-07-22T00:42:43;9.68;;;6.28;;
14732;SDS011;7457;50.960;6.830;2023-07-22T00:45:09;8.80;;;6.20;;
14732;SDS011;7457;50.960;6.830;2023-07-22T00:47:35;9.30;;;6.32;;
14732;SDS011;7457;50.960;6.830;2023-07-22T00:50:02;7.55;;;5.88;;
14732;SDS011;7457;50.960;6.830;2023-07-22T00:52:29;6.82;;;5.95;;
14732;SDS011;7457;50.960;6.830;2023-07-22T00:54:54;11.73;;;6.30;;
14732;SDS011;7457;50.960;6.830;2023-07-22T00:57:20;8.05;;;6.18;;
14732;SDS011;7457;50.960;6.830;2023-07-22T00:59:46;8.48;;;6.35;;
14732;SDS011;7457;50.960;6.830;2023-07-22T01:02:13;8.40;;;6.03;;
14732;SDS011;7457;50.960;6.830;2023-07-22T01:04:38;6.55;;;5.63;;
14732;SDS011;7457;50.960;6.830;2023-07-22T01:07:05;6.97;;;5.90;;
14732;SDS011;7457;50.960;6.830;2023-07-22T01:09:38;10.25;;;6.63;;
14732;SDS011;7457;50.960;6.830;2023-07-22T01:12:05;8.25;;;6.03;;
14732;SDS011;7457;50.960;6.830;2023-07-22T01:14:32;10.20;;;5.70;;
14732;SDS011;7457;50.960;6.830;2023-07-22T01:16:59;9.25;;;6.40;;
14732;SDS011;7457;50.960;6.830;2023-07-22T01:19:30;12.95;;;6.57;;
14732;SDS011;7457;50.960;6.830;2023-07-22T01:21:57;8.90;;;6.43;;
14732;SDS011;7457;50.960;6.830;2023-07-22T01:24:25;8.32;;;6.40;;
14732;SDS011;7457;50.960;6.830;2023-07-22T01:26:51;8.57;;;6.18;;
14732;SDS011;7457;50.960;6.830;2023-07-22T01:29:17;9.85;;;6.18;;
14732;SDS011;7457;50.960;6.830;2023-07-22T01:31:43;9.38;;;6.47;;
14732;SDS011;7457;50.960;6.830;2023-07-22T01:34:12;8.95;;;6.30;;
14732;SDS011;7457;50.960;6.830;2023-07-22T01:36:37;9.27;;;6.07;;
14732;SDS011;7457;50.960;6.830;2023-07-22T01:39:04;10.13;;;6.75;;
14732;SDS011;7457;50.960;6.830;2023-07-22T01:41:30;9.38;;;6.50;;
14732;SDS011;7457;50.960;6.830;2023-07-22T01:43:56;8.15;;;5.95;;
14732;SDS011;7457;50.960;6.830;2023-07-22T01:46:22;11.02;;;6.15;;
14732;SDS011;7457;50.960;6.830;2023-07-22T01:48:48;7.78;;;6.25;;
14732;SDS011;7457;50.960;6.830;2023-07-22T01:51:13;7.32;;;6.18;;
14732;SDS011;7457;50.960;6.830;2023-07-22T01:53:39;9.75;;;6.55;;
14732;SDS011;7457;50.960;6.830;2023-07-22T01:56:05;8.60;;;7.05;;
14732;SDS011;7457;50.960;6.830;2023-07-22T01:58:30;8.98;;;7.22;;
14732;SDS011;7457;50.960;6.830;2023-07-22T02:00:56;9.38;;;7.25;;
14732;SDS011;7457;50.960;6.830;2023-07-22T02:03:21;9.00;;;6.97;;
14732;SDS011;7457;50.960;6.830;2023-07-22T02:05:47;9.32;;;6.70;;
14732;SDS011;7457;50.960;6.830;2023-07-22T02:08:13;9.30;;;7.22;;
14732;SDS011;7457;50.960;6.830;2023-07-22T02:10:38;9.82;;;6.80;;
14732;SDS011;7457;50.960;6.830;2023-07-22T02:13:04;11.43;;;6.43;;
14732;SDS011;7457;50.960;6.830;2023-07-22T02:15:30;10.25;;;7.35;;
14732;SDS011;7457;50.960;6.830;2023-07-22T02:17:57;11.07;;;7.50;;
14732;SDS011;7457;50.960;6.830;2023-07-22T02:20:22;8.70;;;7.03;;
14732;SDS011;7457;50.960;6.830;2023-07-22T02:22:49;13.65;;;7.00;;
14732;SDS011;7457;50.960;6.830;2023-07-22T02:25:14;7.57;;;6.70;;
14732;SDS011;7457;50.960;6.830;2023-07-22T02:27:40;12.25;;;7.82;;
14732;SDS011;7457;50.960;6.830;2023-07-22T02:30:06;10.88;;;7.72;;
14732;SDS011;7457;50.960;6.830;2023-07-22T02:32:35;10.07;;;7.72;;
14732;SDS011;7457;50.960;6.830;2023-07-22T02:35:07;13.40;;;7.78;;
14732;SDS011;7457;50.960;6.830;2023-07-22T02:37:35;9.20;;;6.95;;
14732;SDS011;7457;50.960;6.830;2023-07-22T02:40:02;10.48;;;7.47;;
14732;SDS011;7457;50.960;6.830;2023-07-22T02:42:33;9.32;;;7.53;;
14732;SDS011;7457;50.960;6.830;2023-07-22T02:45:00;10.65;;;6.53;;
14732;SDS011;7457;50.960;6.830;2023-07-22T02:47:26;9.07;;;7.43;;
14732;SDS011;7457;50.960;6.830;2023-07-22T02:49:52;9.20;;;7.82;;
14732;SDS011;7457;50.960;6.830;2023-07-22T02:52:18;9.43;;;7.38;;
14732;SDS011;7457;50.960;6.830;2023-07-22T02:54:54;8.23;;;7.05;;
14732;SDS011;7457;50.960;6.830;2023-07-22T02:57:49;11.43;;;8.68;;
14732;SDS011;7457;50.960;6.830;2023-07-22T03:00:16;9.68;;;7.28;;
14732;SDS011;7457;50.960;6.830;2023-07-22T03:02:53;9.98;;;8.18;;
14732;SDS011;7457;50.960;6.830;2023-07-22T03:05:25;10.48;;;7.53;;
14732;SDS011;7457;50.960;6.830;2023-07-22T03:07:55;10.68;;;8.10;;
14732;SDS011;7457;50.960;6.830;2023-07-22T03:10:22;7.95;;;6.93;;
14732;SDS011;7457;50.960;6.830;2023-07-22T03:12:48;10.82;;;8.23;;
14732;SDS011;7457;50.960;6.830;2023-07-22T03:15:14;13.93;;;7.28;;
14732;SDS011;7457;50.960;6.830;2023-07-22T03:17:39;10.85;;;7.47;;
14732;SDS011;7457;50.960;6.830;2023-07-22T03:20:07;11.57;;;7.35;;
14732;SDS011;7457;50.960;6.830;2023-07-22T03:22:39;10.32;;;7.70;;
14732;SDS011;7457;50.960;6.830;2023-07-22T03:25:05;15.15;;;8.27;;
14732;SDS011;7457;50.960;6.830;2023-07-22T03:27:34;10.80;;;7.55;;
14732;SDS011;7457;50.960;6.830;2023-07-22T03:30:00;9.77;;;7.40;;
14732;SDS011;7457;50.960;6.830;2023-07-22T03:32:26;9.75;;;8.07;;
14732;SDS011;7457;50.960;6.830;2023-07-22T03:34:52;10.80;;;7.97;;
14732;SDS011;7457;50.960;6.830;2023-07-22T03:37:18;10.02;;;7.93;;
14732;SDS011;7457;50.960;6.830;2023-07-22T03:39:45;13.13;;;7.88;;
14732;SDS011;7457;50.960;6.830;2023-07-22T03:42:10;8.80;;;7.53;;
14732;SDS011;7457;50.960;6.830;2023-07-22T03:44:36;10.80;;;7.65;;
14732;SDS011;7457;50.960;6.830;2023-07-22T03:47:02;12.23;;;7.85;;
14732;SDS011;7457;50.960;6.830;2023-07-22T03:49:28;12.73;;;8.18;;
14732;SDS011;7457;50.960;6.830;2023-07-22T03:51:54;10.05;;;7.82;;
14732;SDS011;7457;50.960;6.830;2023-07-22T03:54:19;11.35;;;8.15;;
14732;SDS011;7457;50.960;6.830;2023-07-22T03:56:45;10.77;;;7.82;;
14732;SDS011;7457;50.960;6.830;2023-07-22T03:59:10;12.45;;;8.00;;
14732;SDS011;7457;50.960;6.830;2023-07-22T04:01:36;10.02;;;8.02;;
14732;SDS011;7457;50.960;6.830;2023-07-22T04:04:01;10.45;;;7.80;;
14732;SDS011;7457;50.960;6.830;2023-07-22T04:06:27;9.88;;;7.70;;
14732;SDS011;7457;50.960;6.830;2023-07-22T04:08:53;9.60;;;7.57;;
14732;SDS011;7457;50.960;6.830;2023-07-22T04:11:18;10.63;;;7.38;;
14732;SDS011;7457;50.960;6.830;2023-07-22T04:13:44;8.73;;;7.40;;
14732;SDS011;7457;50.960;6.830;2023-07-22T04:16:10;9.63;;;7.78;;
14732;SDS011;7457;50.960;6.830;2023-07-22T04:18:35;9.23;;;7.30;;
14732;SDS011;7457;50.960;6.830;2023-07-22T04:21:01;9.30;;;7.93;;
14732;SDS011;7457;50.960;6.830;2023-07-22T04:23:27;11.25;;;8.13;;
14732;SDS011;7457;50.960;6.830;2023-07-22T04:25:52;10.88;;;7.85;;
14732;SDS011;7457;50.960;6.830;2023-07-22T04:28:18;10.20;;;7.95;;
14732;SDS011;7457;50.960;6.830;2023-07-22T04:30:53;10.68;;;7.45;;
14732;SDS011;7457;50.960;6.830;2023-07-22T04:33:20;9.93;;;7.28;;
14732;SDS011;7457;50.960;6.830;2023-07-22T04:35:46;11.43;;;7.63;;
14732;SDS011;7457;50.960;6.830;2023-07-22T04:38:11;13.80;;;8.48;;
14732;SDS011;7457;50.960;6.830;2023-07-22T04:40:37;10.68;;;7.50;;
14732;SDS011;7457;50.960;6.830;2023-07-22T04:43:07;11.18;;;7.55;;
14732;SDS011;7457;50.960;6.830;2023-07-22T04:45:32;12.88;;;7.10;;
14732;SDS011;7457;50.960;6.830;2023-07-22T04:47:59;12.02;;;8.13;;
14732;SDS011;7457;50.960;6.830;2023-07-22T04:50:25;12.85;;;8.35;;
14732;SDS011;7457;50.960;6.830;2023-07-22T04:52:50;10.68;;;8.20;;
14732;SDS011;7457;50.960;6.830;2023-07-22T04:55:16;11.38;;;8.30;;
14732;SDS011;7457;50.960;6.830;2023-07-22T04:57:42;12.48;;;8.23;;
14732;SDS011;7457;50.960;6.830;2023-07-22T05:00:10;12.23;;;8.18;;
14732;SDS011;7457;50.960;6.830;2023-07-22T05:02:39;9.80;;;8.15;;
14732;SDS011;7457;50.960;6.830;2023-07-22T05:05:05;10.20;;;7.60;;
14732;SDS011;7457;50.960;6.830;2023-07-22T05:07:31;12.00;;;8.32;;
14732;SDS011;7457;50.960;6.830;2023-07-22T05:09:57;10.50;;;7.90;;
14732;SDS011;7457;50.960;6.830;2023-07-22T05:12:23;11.95;;;8.45;;
14732;SDS011;7457;50.960;6.830;2023-07-22T05:14:48;11.02;;;7.65;;
14732;SDS011;7457;50.960;6.830;2023-07-22T05:17:14;15.10;;;8.13;;
14732;SDS011;7457;50.960;6.830;2023-07-22T05:19:40;8.27;;;7.05;;
14732;SDS011;7457;50.960;6.830;2023-07-22T05:22:06;10.57;;;7.78;;
14732;SDS011;7457;50.960;6.830;2023-07-22T05:24:32;12.27;;;7.82;;
14732;SDS011;7457;50.960;6.830;2023-07-22T05:26:58;10.45;;;7.45;;
14732;SDS011;7457;50.960;6.830;2023-07-22T05:29:23;10.23;;;7.80;;
14732;SDS011;7457;50.960;6.830;2023-07-22T05:31:49;10.55;;;6.82;;
14732;SDS011;7457;50.960;6.830;2023-07-22T05:34:15;9.88;;;6.80;;
14732;SDS011;7457;50.960;6.830;2023-07-22T05:36:40;9.27;;;6.53;;
14732;SDS011;7457;50.960;6.830;2023-07-22T05:39:06;13.07;;;7.80;;
14732;SDS011;7457;50.960;6.830;2023-07-22T05:41:32;9.23;;;6.85;;
14732;SDS011;7457;50.960;6.830;2023-07-22T05:43:59;9.68;;;6.85;;
14732;SDS011;7457;50.960;6.830;2023-07-22T05:46:27;8.25;;;6.85;;
14732;SDS011;7457;50.960;6.830;2023-07-22T05:48:52;8.10;;;6.55;;
14732;SDS011;7457;50.960;6.830;2023-07-22T05:51:18;9.10;;;6.78;;
14732;SDS011;7457;50.960;6.830;2023-07-22T05:53:44;9.68;;;6.93;;
14732;SDS011;7457;50.960;6.830;2023-07-22T05:56:09;6.95;;;6.18;;
14732;SDS011;7457;50.960;6.830;2023-07-22T05:58:35;9.10;;;7.03;;
14732;SDS011;7457;50.960;6.830;2023-07-22T06:01:01;8.65;;;6.65;;
14732;SDS011;7457;50.960;6.830;2023-07-22T06:03:27;9.98;;;7.15;;
14732;SDS011;7457;50.960;6.830;2023-07-22T06:05:53;8.00;;;6.85;;
14732;SDS011;7457;50.960;6.830;2023-07-22T06:08:18;7.30;;;6.22;;
14732;SDS011;7457;50.960;6.830;2023-07-22T06:10:44;9.05;;;6.80;;
14732;SDS011;7457;50.960;6.830;2023-07-22T06:13:10;8.60;;;6.15;;
14732;SDS011;7457;50.960;6.830;2023-07-22T06:15:36;7.85;;;6.35;;
14732;SDS011;7457;50.960;6.830;2023-07-22T06:18:02;7.55;;;6.03;;
14732;SDS011;7457;50.960;6.830;2023-07-22T06:20:28;8.18;;;6.68;;
14732;SDS011;7457;50.960;6.830;2023-07-22T06:22:54;8.27;;;6.22;;
14732;SDS011;7457;50.960;6.830;2023-07-22T06:25:23;8.02;;;6.32;;
14732;SDS011;7457;50.960;6.830;2023-07-22T06:27:49;9.35;;;6.85;;
14732;SDS011;7457;50.960;6.830;2023-07-22T06:30:14;8.10;;;6.30;;
14732;SDS011;7457;50.960;6.830;2023-07-22T06:32:40;7.72;;;6.20;;
14732;SDS011;7457;50.960;6.830;2023-07-22T06:35:06;9.10;;;6.18;;
14732;SDS011;7457;50.960;6.830;2023-07-22T06:37:35;7.50;;;5.25;;
14732;SDS011;7457;50.960;6.830;2023-07-22T06:40:00;7.28;;;6.38;;
14732;SDS011;7457;50.960;6.830;2023-07-22T06:42:27;7.18;;;5.57;;
14732;SDS011;7457;50.960;6.830;2023-07-22T06:44:52;7.80;;;5.38;;
14732;SDS011;7457;50.960;6.830;2023-07-22T06:47:18;6.90;;;6.20;;
14732;SDS011;7457;50.960;6.830;2023-07-22T06:49:44;8.32;;;6.60;;
14732;SDS011;7457;50.960;6.830;2023-07-22T06:52:10;10.55;;;8.00;;
14732;SDS011;7457;50.960;6.830;2023-07-22T06:54:35;7.68;;;5.97;;
14732;SDS011;7457;50.960;6.830;2023-07-22T06:57:01;13.23;;;6.03;;
14732;SDS011;7457;50.960;6.830;2023-07-22T06:59:26;8.93;;;5.97;;
14732;SDS011;7457;50.960;6.830;2023-07-22T07:01:52;10.95;;;6.38;;
14732;SDS011;7457;50.960;6.830;2023-07-22T07:04:18;8.48;;;6.55;;
14732;SDS011;7457;50.960;6.830;2023-07-22T07:06:43;8.40;;;6.40;;
14732;SDS011;7457;50.960;6.830;2023-07-22T07:09:10;6.72;;;6.03;;
14732;SDS011;7457;50.960;6.830;2023-07-22T07:11:36;8.98;;;5.93;;
14732;SDS011;7457;50.960;6.830;2023-07-22T07:14:02;8.45;;;6.43;;
14732;SDS011;7457;50.960;6.830;2023-07-22T07:16:29;7.45;;;6.43;;
14732;SDS011;7457;50.960;6.830;2023-07-22T07:18:56;8.68;;;6.03;;
14732;SDS011;7457;50.960;6.830;2023-07-22T07:21:23;7.75;;;6.22;;
14732;SDS011;7457;50.960;6.830;2023-07-22T07:23:49;7.85;;;5.63;;
14732;SDS011;7457;50.960;6.830;2023-07-22T07:26:16;7.22;;;6.28;;
14732;SDS011;7457;50.960;6.830;2023-07-22T07:28:42;7.85;;;6.47;;
14732;SDS011;7457;50.960;6.830;2023-07-22T07:31:09;8.25;;;5.85;;
14732;SDS011;7457;50.960;6.830;2023-07-22T07:33:35;10.80;;;6.05;;
14732;SDS011;7457;50.960;6.830;2023-07-22T07:36:01;8.48;;;6.18;;
14732;SDS011;7457;50.960;6.830;2023-07-22T07:38:28;8.50;;;6.30;;
14732;SDS011;7457;50.960;6.830;2023-07-22T07:40:57;6.75;;;5.72;;
14732;SDS011;7457;50.960;6.830;2023-07-22T07:43:27;7.75;;;5.80;;
14732;SDS011;7457;50.960;6.830;2023-07-22T07:48:57;7.35;;;5.90;;
14732;SDS011;7457;50.960;6.830;2023-07-22T07:51:26;6.93;;;5.50;;
14732;SDS011;7457;50.960;6.830;2023-07-22T07:53:52;8.77;;;6.70;;
14732;SDS011;7457;50.960;6.830;2023-07-22T07:56:19;7.25;;;6.20;;
14732;SDS011;7457;50.960;6.830;2023-07-22T07:58:46;9.50;;;6.25;;
14732;SDS011;7457;50.960;6.830;2023-07-22T08:01:13;10.73;;;5.75;;
14732;SDS011;7457;50.960;6.830;2023-07-22T08:03:40;8.82;;;6.90;;
14732;SDS011;7457;50.960;6.830;2023-07-22T08:06:07;7.30;;;6.40;;
14732;SDS011;7457;50.960;6.830;2023-07-22T08:08:33;8.68;;;6.07;;
14732;SDS011;7457;50.960;6.830;2023-07-22T08:11:03;7.20;;;5.75;;
14732;SDS011;7457;50.960;6.830;2023-07-22T08:13:33;7.20;;;5.88;;
14732;SDS011;7457;50.960;6.830;2023-07-22T08:16:01;6.65;;;5.22;;
14732;SDS011;7457;50.960;6.830;2023-07-22T08:18:28;7.20;;;5.00;;
14732;SDS011;7457;50.960;6.830;2023-07-22T08:20:54;8.00;;;5.53;;
14732;SDS011;7457;50.960;6.830;2023-07-22T08:23:20;10.15;;;5.80;;
14732;SDS011;7457;50.960;6.830;2023-07-22T08:25:46;6.40;;;5.20;;
14732;SDS011;7457;50.960;6.830;2023-07-22T08:28:12;6.35;;;5.13;;
14732;SDS011;7457;50.960;6.830;2023-07-22T08:30:38;5.43;;;4.85;;
14732;SDS011;7457;50.960;6.830;2023-07-22T08:33:05;5.68;;;4.70;;
14732;SDS011;7457;50.960;6.830;2023-07-22T08:35:33;8.60;;;5.90;;
14732;SDS011;7457;50.960;6.830;2023-07-22T08:38:00;7.63;;;4.80;;
14732;SDS011;7457;50.960;6.830;2023-07-22T08:40:27;6.95;;;4.70;;
14732;SDS011;7457;50.960;6.830;2023-07-22T08:42:57;7.80;;;5.18;;
14732;SDS011;7457;50.960;6.830;2023-07-22T08:45:23;6.20;;;4.60;;
14732;SDS011;7457;50.960;6.830;2023-07-22T08:47:54;7.40;;;4.80;;
14732;SDS011;7457;50.960;6.830;2023-07-22T08:50:22;7.10;;;5.05;;
14732;SDS011;7457;50.960;6.830;2023-07-22T08:52:54;7.88;;;5.03;;
14732;SDS011;7457;50.960;6.830;2023-07-22T08:55:20;7.60;;;5.30;;
14732;SDS011;7457;50.960;6.830;2023-07-22T08:57:46;6.78;;;4.50;;
14732;SDS011;7457;50.960;6.830;2023-07-22T09:00:13;9.20;;;4.70;;
14732;SDS011;7457;50.960;6.830;2023-07-22T09:02:39;5.63;;;4.82;;
14732;SDS011;7457;50.960;6.830;2023-07-22T09:05:06;5.38;;;4.85;;
14732;SDS011;7457;50.960;6.830;2023-07-22T09:07:34;6.30;;;4.72;;
14732;SDS011;7457;50.960;6.830;2023-07-22T09:10:00;6.85;;;5.50;;
14732;SDS011;7457;50.960;6.830;2023-07-22T09:12:27;10.30;;;5.32;;
14732;SDS011;7457;50.960;6.830;2023-07-22T09:14:53;5.82;;;4.85;;
14732;SDS011;7457;50.960;6.830;2023-07-22T09:17:19;6.80;;;5.50;;
14732;SDS011;7457;50.960;6.830;2023-07-22T09:19:44;8.77;;;4.88;;
14732;SDS011;7457;50.960;6.830;2023-07-22T09:22:10;5.32;;;4.72;;
14732;SDS011;7457;50.960;6.830;2023-07-22T09:24:36;5.80;;;4.38;;
14732;SDS011;7457;50.960;6.830;2023-07-22T09:27:01;6.43;;;4.47;;
14732;SDS011;7457;50.960;6.830;2023-07-22T09:29:33;4.75;;;3.70;;
14732;SDS011;7457;50.960;6.830;2023-07-22T09:32:00;5.00;;;4.18;;
14732;SDS011;7457;50.960;6.830;2023-07-22T09:34:27;4.95;;;4.45;;
14732;SDS011;7457;50.960;6.830;2023-07-22T09:36:53;5.10;;;4.10;;
14732;SDS011;7457;50.960;6.830;2023-07-22T09:39:21;7.47;;;3.95;;
14732;SDS011;7457;50.960;6.830;2023-07-22T09:41:47;4.18;;;3.58;;
14732;SDS011;7457;50.960;6.830;2023-07-22T09:44:13;5.60;;;3.60;;
14732;SDS011;7457;50.960;6.830;2023-07-22T09:46:39;6.45;;;5.70;;
14732;SDS011;7457;50.960;6.830;2023-07-22T09:49:05;5.10;;;4.07;;
14732;SDS011;7457;50.960;6.830;2023-07-22T09:51:38;11.77;;;5.78;;
14732;SDS011;7457;50.960;6.830;2023-07-22T09:54:05;4.43;;;3.38;;
14732;SDS011;7457;50.960;6.830;2023-07-22T09:56:32;6.47;;;5.20;;
14732;SDS011;7457;50.960;6.830;2023-07-22T09:59:07;4.32;;;3.30;;
14732;SDS011;7457;50.960;6.830;2023-07-22T10:01:37;5.53;;;4.22;;
14732;SDS011;7457;50.960;6.830;2023-07-22T10:04:04;4.03;;;3.42;;
14732;SDS011;7457;50.960;6.830;2023-07-22T10:06:30;3.40;;;2.85;;
14732;SDS011;7457;50.960;6.830;2023-07-22T10:09:02;5.50;;;2.80;;
14732;SDS011;7457;50.960;6.830;2023-07-22T10:11:32;4.50;;;3.08;;
14732;SDS011;7457;50.960;6.830;2023-07-22T10:13:58;2.97;;;2.60;;
14732;SDS011;7457;50.960;6.830;2023-07-22T10:16:24;2.63;;;2.42;;
14732;SDS011;7457;50.960;6.830;2023-07-22T10:18:50;5.03;;;2.85;;
14732;SDS011;7457;50.960;6.830;2023-07-22T10:21:17;3.13;;;2.83;;
14732;SDS011;7457;50.960;6.830;2023-07-22T10:23:43;3.20;;;2.75;;
14732;SDS011;7457;50.960;6.830;2023-07-22T10:26:12;5.57;;;2.80;;
14732;SDS011;7457;50.960;6.830;2023-07-22T10:28:41;3.80;;;2.72;;
14732;SDS011;7457;50.960;6.830;2023-07-22T10:31:09;2.67;;;2.47;;
14732;SDS011;7457;50.960;6.830;2023-07-22T10:33:35;3.70;;;2.78;;
14732;SDS011;7457;50.960;6.830;2023-07-22T10:36:01;4.28;;;2.85;;
14732;SDS011;7457;50.960;6.830;2023-07-22T10:38:29;4.22;;;2.65;;
14732;SDS011;7457;50.960;6.830;2023-07-22T10:40:55;4.07;;;2.58;;
14732;SDS011;7457;50.960;6.830;2023-07-22T10:43:25;3.25;;;2.58;;
14732;SDS011;7457;50.960;6.830;2023-07-22T10:45:54;2.95;;;2.60;;
14732;SDS011;7457;50.960;6.830;2023-07-22T10:48:22;2.55;;;2.15;;
14732;SDS011;7457;50.960;6.830;2023-07-22T10:51:00;4.03;;;2.38;;
14732;SDS011;7457;50.960;6.830;2023-07-22T10:53:42;3.90;;;2.20;;
14732;SDS011;7457;50.960;6.830;2023-07-22T11:12:04;3.92;;;2.25;;
14732;SDS011;7457;50.960;6.830;2023-07-22T11:14:32;3.58;;;2.40;;
14732;SDS011;7457;50.960;6.830;2023-07-22T11:16:59;2.90;;;2.58;;
14732;SDS011;7457;50.960;6.830;2023-07-22T11:19:28;6.30;;;2.63;;
14732;SDS011;7457;50.960;6.830;2023-07-22T11:21:54;3.58;;;2.40;;
14732;SDS011;7457;50.960;6.830;2023-07-22T11:24:21;2.95;;;2.42;;
14732;SDS011;7457;50.960;6.830;2023-07-22T11:26:48;3.08;;;2.72;;
14732;SDS011;7457;50.960;6.830;2023-07-22T11:29:14;3.30;;;2.63;;
14732;SDS011;7457;50.960;6.830;2023-07-22T11:31:42;3.08;;;2.53;;
14732;SDS011;7457;50.960;6.830;2023-07-22T11:34:10;3.22;;;2.50;;
14732;SDS011;7457;50.960;6.830;2023-07-22T11:36:36;3.10;;;2.55;;
14732;SDS011;7457;50.960;6.830;2023-07-22T11:39:06;3.97;;;3.05;;
14732;SDS011;7457;50.960;6.830;2023-07-22T11:41:33;3.72;;;2.47;;
14732;SDS011;7457;50.960;6.830;2023-07-22T11:44:00;2.90;;;2.58;;
14732;SDS011;7457;50.960;6.830;2023-07-22T11:46:27;5.45;;;2.78;;
14732;SDS011;7457;50.960;6.830;2023-07-22T11:48:53;5.63;;;2.90;;
14732;SDS011;7457;50.960;6.830;2023-07-22T11:51:20;2.60;;;2.40;;
14732;SDS011;7457;50.960;6.830;2023-07-22T11:53:47;4.32;;;2.90;;
14732;SDS011;7457;50.960;6.830;2023-07-22T11:56:23;3.20;;;2.72;;
14732;SDS011;7457;50.960;6.830;2023-07-22T11:58:53;3.60;;;2.90;;
14732;SDS011;7457;50.960;6.830;2023-07-22T12:01:20;2.70;;;2.50;;
14732;SDS011;7457;50.960;6.830;2023-07-22T12:03:46;3.45;;;2.50;;
14732;SDS011;7457;50.960;6.830;2023-07-22T12:06:12;4.38;;;2.35;;
14732;SDS011;7457;50.960;6.830;2023-07-22T12:08:48;5.15;;;2.90;;
14732;SDS011;7457;50.960;6.830;2023-07-22T12:11:21;3.50;;;2.72;;
14732;SDS011;7457;50.960;6.830;2023-07-22T12:16:34;3.03;;;2.63;;
14732;SDS011;7457;50.960;6.830;2023-07-22T12:19:03;3.38;;;2.75;;
14732;SDS011;7457;50.960;6.830;2023-07-22T12:21:30;4.22;;;2.55;;
14732;SDS011;7457;50.960;6.830;2023-07-22T12:23:56;3.90;;;2.88;;
14732;SDS011;7457;50.960;6.830;2023-07-22T12:26:22;3.90;;;2.60;;
14732;SDS011;7457;50.960;6.830;2023-07-22T12:28:48;4.20;;;2.85;;
14732;SDS011;7457;50.960;6.830;2023-07-22T12:31:13;5.78;;;2.90;;
14732;SDS011;7457;50.960;6.830;2023-07-22T12:33:39;3.03;;;2.20;;
14732;SDS011;7457;50.960;6.830;2023-07-22T12:36:05;4.97;;;2.70;;
14732;SDS011;7457;50.960;6.830;2023-07-22T12:38:31;2.75;;;2.00;;
14732;SDS011;7457;50.960;6.830;2023-07-22T12:40:57;3.05;;;2.13;;
14732;SDS011;7457;50.960;6.830;2023-07-22T12:43:22;2.63;;;2.15;;
14732;SDS011;7457;50.960;6.830;2023-07-22T12:45:48;3.33;;;2.20;;
14732;SDS011;7457;50.960;6.830;2023-07-22T12:48:15;2.30;;;2.10;;
14732;SDS011;7457;50.960;6.830;2023-07-22T12:50:42;4.72;;;2.40;;
14732;SDS011;7457;50.960;6.830;2023-07-22T12:53:08;3.47;;;2.28;;
14732;SDS011;7457;50.960;6.830;2023-07-22T12:55:33;2.67;;;2.47;;
14732;SDS011;7457;50.960;6.830;2023-07-22T12:57:59;2.42;;;2.15;;
14732;SDS011;7457;50.960;6.830;2023-07-22T13:00:25;2.88;;;2.58;;
14732;SDS011;7457;50.960;6.830;2023-07-22T13:02:50;2.85;;;2.28;;
14732;SDS011;7457;50.960;6.830;2023-07-22T13:05:19;3.60;;;2.35;;
14732;SDS011;7457;50.960;6.830;2023-07-22T13:07:45;2.67;;;2.17;;
14732;SDS011;7457;50.960;6.830;2023-07-22T13:10:10;3.42;;;2.47;;
14732;SDS011;7457;50.960;6.830;2023-07-22T13:12:40;3.00;;;2.50;;
14732;SDS011;7457;50.960;6.830;2023-07-22T13:15:05;2.22;;;2.03;;
14732;SDS011;7457;50.960;6.830;2023-07-22T13:17:31;2.35;;;2.15;;
14732;SDS011;7457;50.960;6.830;2023-07-22T13:19:57;2.83;;;2.50;;
14732;SDS011;7457;50.960;6.830;2023-07-22T13:22:22;2.53;;;2.33;;
14732;SDS011;7457;50.960;6.830;2023-07-22T13:24:48;2.55;;;2.35;;
14732;SDS011;7457;50.960;6.830;2023-07-22T13:27:14;2.63;;;2.10;;
14732;SDS011;7457;50.960;6.830;2023-07-22T13:29:39;2.70;;;2.50;;
14732;SDS011;7457;50.960;6.830;2023-07-22T13:32:05;2.70;;;2.50;;
14732;SDS011;7457;50.960;6.830;2023-07-22T13:34:31;3.55;;;2.60;;
14732;SDS011;7457;50.960;6.830;2023-07-22T13:36:57;3.63;;;2.45;;
14732;SDS011;7457;50.960;6.830;2023-07-22T13:39:22;3.83;;;2.72;;
14732;SDS011;7457;50.960;6.830;2023-07-22T13:41:48;5.82;;;2.78;;
14732;SDS011;7457;50.960;6.830;2023-07-22T13:44:15;4.28;;;2.30;;
14732;SDS011;7457;50.960;6.830;2023-07-22T13:46:41;2.50;;;2.30;;
14732;SDS011;7457;50.960;6.830;2023-07-22T13:49:06;3.55;;;2.60;;
14732;SDS011;7457;50.960;6.830;2023-07-22T13:51:32;3.42;;;2.70;;
14732;SDS011;7457;50.960;6.830;2023-07-22T13:53:58;3.10;;;2.80;;
14732;SDS011;7457;50.960;6.830;2023-07-22T13:56:23;3.65;;;2.80;;
14732;SDS011;7457;50.960;6.830;2023-07-22T13:58:49;4.07;;;2.78;;
14732;SDS011;7457;50.960;6.830;2023-07-22T14:01:15;3.05;;;2.75;;
14732;SDS011;7457;50.960;6.830;2023-07-22T14:03:41;4.38;;;2.78;;
14732;SDS011;7457;50.960;6.830;2023-07-22T14:06:06;5.40;;;3.03;;
14732;SDS011;7457;50.960;6.830;2023-07-22T14:08:33;4.90;;;2.70;;
14732;SDS011;7457;50.960;6.830;2023-07-22T14:10:59;3.30;;;3.00;;
14732;SDS011;7457;50.960;6.830;2023-07-22T14:13:24;3.53;;;3.22;;
14732;SDS011;7457;50.960;6.830;2023-07-22T14:15:50;3.35;;;2.88;;
14732;SDS011;7457;50.960;6.830;2023-07-22T14:18:16;5.15;;;3.35;;
14732;SDS011;7457;50.960;6.830;2023-07-22T14:20:44;3.88;;;3.13;;
14732;SDS011;7457;50.960;6.830;2023-07-22T14:23:10;3.80;;;3.17;;
14732;SDS011;7457;50.960;6.830;2023-07-22T14:25:36;3.78;;;3.33;;
14732;SDS011;7457;50.960;6.830;2023-07-22T14:28:01;3.92;;;3.35;;
14732;SDS011;7457;50.960;6.830;2023-07-22T14:30:27;4.45;;;2.97;;
14732;SDS011;7457;50.960;6.830;2023-07-22T14:32:53;3.85;;;3.25;;
14732;SDS011;7457;50.960;6.830;2023-07-22T14:35:18;4.32;;;3.25;;
14732;SDS011;7457;50.960;6.830;2023-07-22T14:37:44;4.00;;;3.20;;
14732;SDS011;7457;50.960;6.830;2023-07-22T14:40:11;4.60;;;3.20;;
14732;SDS011;7457;50.960;6.830;2023-07-22T14:42:37;5.70;;;3.15;;
14732;SDS011;7457;50.960;6.830;2023-07-22T14:45:03;6.30;;;3.15;;
14732;SDS011;7457;50.960;6.830;2023-07-22T14:47:30;3.58;;;2.88;;
14732;SDS011;7457;50.960;6.830;2023-07-22T14:49:55;3.58;;;2.97;;
14732;SDS011;7457;50.960;6.830;2023-07-22T14:52:21;6.00;;;3.70;;
14732;SDS011;7457;50.960;6.830;2023-07-22T14:54:47;5.15;;;3.38;;
14732;SDS011;7457;50.960;6.830;2023-07-22T14:57:14;3.40;;;3.10;;
14732;SDS011;7457;50.960;6.830;2023-07-22T14:59:39;4.50;;;3.55;;
14732;SDS011;7457;50.960;6.830;2023-07-22T15:02:05;5.38;;;3.15;;
14732;SDS011;7457;50.960;6.830;2023-07-22T15:04:31;3.58;;;2.83;;
14732;SDS011;7457;50.960;6.830;2023-07-22T15:06:57;4.15;;;3.20;;
14732;SDS011;7457;50.960;6.830;2023-07-22T15:09:22;9.75;;;3.25;;
14732;SDS011;7457;50.960;6.830;2023-07-22T15:11:48;3.20;;;2.88;;
14732;SDS011;7457;50.960;6.830;2023-07-22T15:14:14;3.97;;;3.17;;
14732;SDS011;7457;50.960;6.830;2023-07-22T15:16:40;6.25;;;3.13;;